Página principal
METAR-TAF:

METAR-TAF

Aeroportos :

Cambridge, Inglaterra

latitude: 52-12N, longitude: 000-11E, altura: 15 m

Observação actual do tempo

O boletim foi feito há 9 horas e 0 minutos, às 16:50 UTC
Vento 3 kt de norte
Temperatura 12°C
Humidade 94%
Pressão 1010 hPa
Visibilidade: 5000 m
Encobertoa uma altura de 200 ft
chuva fraca

METAR: EGSC 181650Z 36003KT 5000 -RA OVC002 12/11 Q1010 RERA

Hora: 02:50 (01:50 UTC)

Previsão

O boletim foi feito há 11 horas e 52 minutos, às 13:58 UTC
Previsão válida de 18 às 15 UTC a 18 às 19 UTC
Vento 6 kt de es-nordeste
Visibilidade 10 km ou mais
Nuvens fragmentadasa uma altura de 1200 ft
Temporariamente
de 18 às 15 UTC a 18 às 19 UTC
Visibilidade: 7000 m
chuva
Probabilidade 30% :
Temporariamente
de 18 às 15 UTC a 18 às 19 UTC
Visibilidade: 4000 m
Nuvens fragmentadasa uma altura de 400 ft
chuva, chuvisco

TAF: EGSC 181358Z 1815/1819 06006KT 9999 BKN012 TEMPO 1815/1819 7000 RA PROB30 TEMPO 1815/1819 4000 RADZ BKN004

Observações e previsões do tempo de mais de 4000 aeroportos (mensagens METAR e TAF).

As estações disponíveis são os pontos amarelos e vermelhos sobre o mapa.

Mova o rato sobre o mapa para ver o nome da estação.

Depois clique no ponto para visualizar as observações e previsões meteorológicas.

Para alterar o mapa : clique nos botões verdes com uma cruz preta para aumentar o zoom; no botão verde com uma pitada de zoom; ou nas setas verdes para mapas adjacentes.


METAR-TAF: